sensor_id;sensor_type;location;lat;lon;timestamp;temperature;humidity
7564;DHT22;3823;53.586;10.040;2022-12-07T00:01:40;4.10;1.00
7564;DHT22;3823;53.586;10.040;2022-12-07T00:04:07;4.10;1.00
7564;DHT22;3823;53.586;10.040;2022-12-07T00:06:38;4.10;1.00
7564;DHT22;3823;53.586;10.040;2022-12-07T00:09:05;4.20;1.00
7564;DHT22;3823;53.586;10.040;2022-12-07T00:11:31;4.10;1.00
7564;DHT22;3823;53.586;10.040;2022-12-07T00:14:00;4.20;1.00
7564;DHT22;3823;53.586;10.040;2022-12-07T00:16:29;4.20;1.00
7564;DHT22;3823;53.586;10.040;2022-12-07T00:18:55;4.20;1.00
7564;DHT22;3823;53.586;10.040;2022-12-07T00:21:26;4.10;1.00
7564;DHT22;3823;53.586;10.040;2022-12-07T00:23:53;4.10;1.00
7564;DHT22;3823;53.586;10.040;2022-12-07T00:26:21;4.10;1.00
7564;DHT22;3823;53.586;10.040;2022-12-07T00:28:53;4.10;1.00
7564;DHT22;3823;53.586;10.040;2022-12-07T00:31:21;4.10;1.00
7564;DHT22;3823;53.586;10.040;2022-12-07T00:33:48;4.10;1.00
7564;DHT22;3823;53.586;10.040;2022-12-07T00:36:19;4.10;1.00
7564;DHT22;3823;53.586;10.040;2022-12-07T00:38:45;4.10;1.00
7564;DHT22;3823;53.586;10.040;2022-12-07T00:41:13;4.00;1.00
7564;DHT22;3823;53.586;10.040;2022-12-07T00:43:39;4.00;1.00
7564;DHT22;3823;53.586;10.040;2022-12-07T00:46:05;4.10;1.00
7564;DHT22;3823;53.586;10.040;2022-12-07T00:48:31;4.10;1.00
7564;DHT22;3823;53.586;10.040;2022-12-07T00:50:57;4.10;1.00
7564;DHT22;3823;53.586;10.040;2022-12-07T00:53:23;4.10;1.00
7564;DHT22;3823;53.586;10.040;2022-12-07T00:55:48;4.10;1.00
7564;DHT22;3823;53.586;10.040;2022-12-07T00:58:14;4.10;1.00
7564;DHT22;3823;53.586;10.040;2022-12-07T01:00:42;4.10;1.00
7564;DHT22;3823;53.586;10.040;2022-12-07T01:03:10;4.10;1.00
7564;DHT22;3823;53.586;10.040;2022-12-07T01:05:36;4.10;1.00
7564;DHT22;3823;53.586;10.040;2022-12-07T01:08:02;4.10;1.00
7564;DHT22;3823;53.586;10.040;2022-12-07T01:10:28;4.10;1.00
7564;DHT22;3823;53.586;10.040;2022-12-07T01:12:56;4.20;1.00
7564;DHT22;3823;53.586;10.040;2022-12-07T01:15:21;4.30;1.00
7564;DHT22;3823;53.586;10.040;2022-12-07T01:17:47;4.20;1.00
7564;DHT22;3823;53.586;10.040;2022-12-07T01:20:13;4.20;1.00
7564;DHT22;3823;53.586;10.040;2022-12-07T01:22:40;4.30;1.00
7564;DHT22;3823;53.586;10.040;2022-12-07T01:25:07;4.20;1.00
7564;DHT22;3823;53.586;10.040;2022-12-07T01:27:34;4.20;1.00
7564;DHT22;3823;53.586;10.040;2022-12-07T01:30:00;4.30;1.00
7564;DHT22;3823;53.586;10.040;2022-12-07T01:32:26;4.20;1.00
7564;DHT22;3823;53.586;10.040;2022-12-07T01:34:52;4.20;1.00
7564;DHT22;3823;53.586;10.040;2022-12-07T01:37:17;4.30;1.00
7564;DHT22;3823;53.586;10.040;2022-12-07T01:39:43;4.20;99.90
7564;DHT22;3823;53.586;10.040;2022-12-07T01:42:12;4.20;1.00
7564;DHT22;3823;53.586;10.040;2022-12-07T01:47:43;4.10;1.00
7564;DHT22;3823;53.586;10.040;2022-12-07T01:50:09;4.10;1.00
7564;DHT22;3823;53.586;10.040;2022-12-07T01:52:37;4.10;1.00
7564;DHT22;3823;53.586;10.040;2022-12-07T01:55:07;4.20;1.00
7564;DHT22;3823;53.586;10.040;2022-12-07T01:57:35;4.10;1.00
7564;DHT22;3823;53.586;10.040;2022-12-07T02:00:04;4.20;1.00
7564;DHT22;3823;53.586;10.040;2022-12-07T02:02:33;4.10;1.00
7564;DHT22;3823;53.586;10.040;2022-12-07T02:05:01;4.10;1.00
7564;DHT22;3823;53.586;10.040;2022-12-07T02:07:28;4.10;1.00
7564;DHT22;3823;53.586;10.040;2022-12-07T02:09:54;4.10;1.00
7564;DHT22;3823;53.586;10.040;2022-12-07T02:12:20;4.10;1.00
7564;DHT22;3823;53.586;10.040;2022-12-07T02:14:46;4.20;1.00
7564;DHT22;3823;53.586;10.040;2022-12-07T02:17:37;4.20;1.00
7564;DHT22;3823;53.586;10.040;2022-12-07T02:20:33;4.10;99.90
7564;DHT22;3823;53.586;10.040;2022-12-07T02:26:45;4.20;99.90
7564;DHT22;3823;53.586;10.040;2022-12-07T02:29:40;4.20;99.90
7564;DHT22;3823;53.586;10.040;2022-12-07T02:32:20;4.10;99.90
7564;DHT22;3823;53.586;10.040;2022-12-07T02:35:03;4.10;99.90
7564;DHT22;3823;53.586;10.040;2022-12-07T02:40:35;4.10;99.90
7564;DHT22;3823;53.586;10.040;2022-12-07T02:43:38;4.10;99.90
7564;DHT22;3823;53.586;10.040;2022-12-07T02:46:09;4.10;99.90
7564;DHT22;3823;53.586;10.040;2022-12-07T02:48:38;4.00;99.90
7564;DHT22;3823;53.586;10.040;2022-12-07T02:51:04;4.10;99.90
7564;DHT22;3823;53.586;10.040;2022-12-07T02:53:38;4.20;99.90
7564;DHT22;3823;53.586;10.040;2022-12-07T03:08:04;4.00;99.90
7564;DHT22;3823;53.586;10.040;2022-12-07T03:13:25;4.00;99.90
7564;DHT22;3823;53.586;10.040;2022-12-07T03:18:30;4.00;99.90
7564;DHT22;3823;53.586;10.040;2022-12-07T03:21:02;4.00;99.90
7564;DHT22;3823;53.586;10.040;2022-12-07T03:23:33;3.90;99.90
7564;DHT22;3823;53.586;10.040;2022-12-07T03:26:01;3.90;99.90
7564;DHT22;3823;53.586;10.040;2022-12-07T03:28:32;3.90;99.90
7564;DHT22;3823;53.586;10.040;2022-12-07T03:31:03;3.90;99.90
7564;DHT22;3823;53.586;10.040;2022-12-07T03:33:53;3.80;99.90
7564;DHT22;3823;53.586;10.040;2022-12-07T03:36:27;3.90;99.90
7564;DHT22;3823;53.586;10.040;2022-12-07T03:39:00;3.80;99.90
7564;DHT22;3823;53.586;10.040;2022-12-07T03:41:31;3.80;99.90
7564;DHT22;3823;53.586;10.040;2022-12-07T03:43:59;3.80;99.90
7564;DHT22;3823;53.586;10.040;2022-12-07T03:46:39;3.70;99.90
7564;DHT22;3823;53.586;10.040;2022-12-07T03:49:22;3.70;99.90
7564;DHT22;3823;53.586;10.040;2022-12-07T03:52:16;3.70;99.90
7564;DHT22;3823;53.586;10.040;2022-12-07T03:55:36;3.70;99.90
7564;DHT22;3823;53.586;10.040;2022-12-07T03:57:59;3.70;99.90
7564;DHT22;3823;53.586;10.040;2022-12-07T04:00:26;3.70;99.90
7564;DHT22;3823;53.586;10.040;2022-12-07T04:02:55;3.70;99.90
7564;DHT22;3823;53.586;10.040;2022-12-07T04:05:21;3.60;99.90
7564;DHT22;3823;53.586;10.040;2022-12-07T04:07:47;3.60;99.90
7564;DHT22;3823;53.586;10.040;2022-12-07T04:10:12;3.70;99.90
7564;DHT22;3823;53.586;10.040;2022-12-07T04:12:38;3.60;99.90
7564;DHT22;3823;53.586;10.040;2022-12-07T04:15:04;3.60;99.90
7564;DHT22;3823;53.586;10.040;2022-12-07T04:17:30;3.50;99.90
7564;DHT22;3823;53.586;10.040;2022-12-07T04:19:56;3.50;99.90
7564;DHT22;3823;53.586;10.040;2022-12-07T04:22:21;3.50;99.90
7564;DHT22;3823;53.586;10.040;2022-12-07T04:24:47;3.50;99.90
7564;DHT22;3823;53.586;10.040;2022-12-07T04:27:13;3.50;99.90
7564;DHT22;3823;53.586;10.040;2022-12-07T04:29:38;3.50;99.90
7564;DHT22;3823;53.586;10.040;2022-12-07T04:32:04;3.50;99.90
7564;DHT22;3823;53.586;10.040;2022-12-07T04:34:30;3.50;99.90
7564;DHT22;3823;53.586;10.040;2022-12-07T04:36:55;3.50;99.90
7564;DHT22;3823;53.586;10.040;2022-12-07T04:39:24;3.40;99.90
7564;DHT22;3823;53.586;10.040;2022-12-07T04:41:50;3.40;99.90
7564;DHT22;3823;53.586;10.040;2022-12-07T04:44:16;3.40;99.90
7564;DHT22;3823;53.586;10.040;2022-12-07T04:46:42;3.40;99.90
7564;DHT22;3823;53.586;10.040;2022-12-07T04:49:09;3.30;99.90
7564;DHT22;3823;53.586;10.040;2022-12-07T04:51:35;3.30;99.90
7564;DHT22;3823;53.586;10.040;2022-12-07T04:54:00;3.30;99.90
7564;DHT22;3823;53.586;10.040;2022-12-07T04:56:26;3.40;99.90
7564;DHT22;3823;53.586;10.040;2022-12-07T04:58:53;3.30;99.90
7564;DHT22;3823;53.586;10.040;2022-12-07T05:01:21;3.30;99.90
7564;DHT22;3823;53.586;10.040;2022-12-07T05:03:47;3.40;99.90
7564;DHT22;3823;53.586;10.040;2022-12-07T05:06:13;3.40;99.90
7564;DHT22;3823;53.586;10.040;2022-12-07T05:08:39;3.40;99.90
7564;DHT22;3823;53.586;10.040;2022-12-07T05:11:05;3.30;99.90
7564;DHT22;3823;53.586;10.040;2022-12-07T05:13:32;3.30;99.90
7564;DHT22;3823;53.586;10.040;2022-12-07T05:15:58;3.30;99.90
7564;DHT22;3823;53.586;10.040;2022-12-07T05:18:24;3.30;99.90
7564;DHT22;3823;53.586;10.040;2022-12-07T05:20:50;3.30;99.90
7564;DHT22;3823;53.586;10.040;2022-12-07T05:23:16;3.30;99.90
7564;DHT22;3823;53.586;10.040;2022-12-07T05:25:42;3.40;99.90
7564;DHT22;3823;53.586;10.040;2022-12-07T05:28:08;3.40;99.90
7564;DHT22;3823;53.586;10.040;2022-12-07T05:30:34;3.40;99.90
7564;DHT22;3823;53.586;10.040;2022-12-07T05:32:59;3.40;99.90
7564;DHT22;3823;53.586;10.040;2022-12-07T05:35:25;3.30;99.90
7564;DHT22;3823;53.586;10.040;2022-12-07T05:37:51;3.30;99.90
7564;DHT22;3823;53.586;10.040;2022-12-07T05:40:16;3.40;99.90
7564;DHT22;3823;53.586;10.040;2022-12-07T05:42:44;3.40;99.90
7564;DHT22;3823;53.586;10.040;2022-12-07T05:45:10;3.30;99.90
7564;DHT22;3823;53.586;10.040;2022-12-07T05:47:36;3.30;99.90
7564;DHT22;3823;53.586;10.040;2022-12-07T05:50:03;3.30;99.90
7564;DHT22;3823;53.586;10.040;2022-12-07T05:52:29;3.20;99.90
7564;DHT22;3823;53.586;10.040;2022-12-07T05:54:55;3.30;99.90
7564;DHT22;3823;53.586;10.040;2022-12-07T05:57:20;3.30;99.90
7564;DHT22;3823;53.586;10.040;2022-12-07T05:59:46;3.30;99.90
7564;DHT22;3823;53.586;10.040;2022-12-07T06:02:14;3.30;99.90
7564;DHT22;3823;53.586;10.040;2022-12-07T06:04:45;3.30;99.90
7564;DHT22;3823;53.586;10.040;2022-12-07T06:07:13;3.30;99.90
7564;DHT22;3823;53.586;10.040;2022-12-07T06:09:39;3.30;99.90
7564;DHT22;3823;53.586;10.040;2022-12-07T06:12:05;3.30;99.90
7564;DHT22;3823;53.586;10.040;2022-12-07T06:14:50;3.40;99.90
7564;DHT22;3823;53.586;10.040;2022-12-07T06:17:16;3.30;99.90
7564;DHT22;3823;53.586;10.040;2022-12-07T06:19:42;3.30;99.90
7564;DHT22;3823;53.586;10.040;2022-12-07T06:22:08;3.20;99.90
7564;DHT22;3823;53.586;10.040;2022-12-07T06:24:36;3.20;99.90
7564;DHT22;3823;53.586;10.040;2022-12-07T06:27:01;3.20;99.90
7564;DHT22;3823;53.586;10.040;2022-12-07T06:29:27;3.20;99.90
7564;DHT22;3823;53.586;10.040;2022-12-07T06:31:53;3.20;99.90
7564;DHT22;3823;53.586;10.040;2022-12-07T06:34:20;3.20;99.90
7564;DHT22;3823;53.586;10.040;2022-12-07T06:36:48;3.30;99.90
7564;DHT22;3823;53.586;10.040;2022-12-07T06:39:21;3.30;99.90
7564;DHT22;3823;53.586;10.040;2022-12-07T06:41:47;3.20;99.90
7564;DHT22;3823;53.586;10.040;2022-12-07T06:44:13;3.20;99.90
7564;DHT22;3823;53.586;10.040;2022-12-07T06:46:39;3.10;99.90
7564;DHT22;3823;53.586;10.040;2022-12-07T06:49:05;3.20;99.90
7564;DHT22;3823;53.586;10.040;2022-12-07T06:51:32;3.10;99.90
7564;DHT22;3823;53.586;10.040;2022-12-07T06:53:58;3.10;99.90
7564;DHT22;3823;53.586;10.040;2022-12-07T06:56:23;3.10;99.90
7564;DHT22;3823;53.586;10.040;2022-12-07T06:58:49;3.00;99.90
7564;DHT22;3823;53.586;10.040;2022-12-07T07:01:17;3.10;99.90
7564;DHT22;3823;53.586;10.040;2022-12-07T07:03:44;3.10;99.90
7564;DHT22;3823;53.586;10.040;2022-12-07T07:06:10;3.20;99.90
7564;DHT22;3823;53.586;10.040;2022-12-07T07:08:36;3.20;99.90
7564;DHT22;3823;53.586;10.040;2022-12-07T07:11:03;3.20;99.90
7564;DHT22;3823;53.586;10.040;2022-12-07T07:13:28;3.30;99.90
7564;DHT22;3823;53.586;10.040;2022-12-07T07:15:55;3.30;99.90
7564;DHT22;3823;53.586;10.040;2022-12-07T07:18:21;3.30;99.90
7564;DHT22;3823;53.586;10.040;2022-12-07T07:20:46;3.30;99.90
7564;DHT22;3823;53.586;10.040;2022-12-07T07:23:12;3.20;99.90
7564;DHT22;3823;53.586;10.040;2022-12-07T07:25:38;3.30;99.90
7564;DHT22;3823;53.586;10.040;2022-12-07T07:28:04;3.30;99.90
7564;DHT22;3823;53.586;10.040;2022-12-07T07:30:30;3.30;99.90
7564;DHT22;3823;53.586;10.040;2022-12-07T07:32:57;3.20;99.90
7564;DHT22;3823;53.586;10.040;2022-12-07T07:35:23;3.30;99.90
7564;DHT22;3823;53.586;10.040;2022-12-07T07:37:49;3.30;99.90
7564;DHT22;3823;53.586;10.040;2022-12-07T07:40:15;3.50;99.90
7564;DHT22;3823;53.586;10.040;2022-12-07T07:42:41;3.60;99.90
7564;DHT22;3823;53.586;10.040;2022-12-07T07:45:07;3.70;99.90
7564;DHT22;3823;53.586;10.040;2022-12-07T07:47:32;3.70;99.90
7564;DHT22;3823;53.586;10.040;2022-12-07T07:49:58;3.80;99.90
7564;DHT22;3823;53.586;10.040;2022-12-07T07:52:24;3.70;99.90
7564;DHT22;3823;53.586;10.040;2022-12-07T07:54:50;3.70;99.90
7564;DHT22;3823;53.586;10.040;2022-12-07T07:57:18;3.60;99.90
7564;DHT22;3823;53.586;10.040;2022-12-07T07:59:44;3.50;99.90
7564;DHT22;3823;53.586;10.040;2022-12-07T08:02:20;3.50;99.90
7564;DHT22;3823;53.586;10.040;2022-12-07T08:04:46;3.50;99.90
7564;DHT22;3823;53.586;10.040;2022-12-07T08:07:12;3.50;99.90
7564;DHT22;3823;53.586;10.040;2022-12-07T08:09:38;3.50;99.90
7564;DHT22;3823;53.586;10.040;2022-12-07T08:12:04;3.60;99.90
7564;DHT22;3823;53.586;10.040;2022-12-07T08:14:30;3.50;99.90
7564;DHT22;3823;53.586;10.040;2022-12-07T08:16:56;3.50;99.90
7564;DHT22;3823;53.586;10.040;2022-12-07T08:19:22;3.50;99.90
7564;DHT22;3823;53.586;10.040;2022-12-07T08:21:47;3.60;99.90
7564;DHT22;3823;53.586;10.040;2022-12-07T08:24:13;3.60;99.90
7564;DHT22;3823;53.586;10.040;2022-12-07T08:26:38;3.70;99.90
7564;DHT22;3823;53.586;10.040;2022-12-07T08:29:04;3.80;99.90
7564;DHT22;3823;53.586;10.040;2022-12-07T08:31:30;3.80;99.90
7564;DHT22;3823;53.586;10.040;2022-12-07T08:33:55;3.70;99.90
7564;DHT22;3823;53.586;10.040;2022-12-07T08:36:21;3.80;99.90
7564;DHT22;3823;53.586;10.040;2022-12-07T08:38:48;3.90;99.90
7564;DHT22;3823;53.586;10.040;2022-12-07T08:41:14;3.90;99.90
7564;DHT22;3823;53.586;10.040;2022-12-07T08:43:39;4.00;99.90
7564;DHT22;3823;53.586;10.040;2022-12-07T08:49:03;4.00;99.90
7564;DHT22;3823;53.586;10.040;2022-12-07T08:51:30;4.10;99.90
7564;DHT22;3823;53.586;10.040;2022-12-07T08:53:56;4.20;99.90
7564;DHT22;3823;53.586;10.040;2022-12-07T08:56:24;4.20;99.90
7564;DHT22;3823;53.586;10.040;2022-12-07T08:58:50;4.10;99.90
7564;DHT22;3823;53.586;10.040;2022-12-07T09:01:15;4.20;99.90
7564;DHT22;3823;53.586;10.040;2022-12-07T09:03:41;4.20;99.90
7564;DHT22;3823;53.586;10.040;2022-12-07T09:06:07;4.20;99.90
7564;DHT22;3823;53.586;10.040;2022-12-07T09:08:38;4.10;99.90
7564;DHT22;3823;53.586;10.040;2022-12-07T09:11:04;4.10;99.90
7564;DHT22;3823;53.586;10.040;2022-12-07T09:13:30;4.20;99.90
7564;DHT22;3823;53.586;10.040;2022-12-07T09:15:56;4.30;99.90
7564;DHT22;3823;53.586;10.040;2022-12-07T09:18:21;4.30;99.90
7564;DHT22;3823;53.586;10.040;2022-12-07T09:20:47;4.40;99.90
7564;DHT22;3823;53.586;10.040;2022-12-07T09:23:12;4.30;99.90
7564;DHT22;3823;53.586;10.040;2022-12-07T09:25:38;4.40;99.90
7564;DHT22;3823;53.586;10.040;2022-12-07T09:28:04;4.40;99.90
7564;DHT22;3823;53.586;10.040;2022-12-07T09:30:29;4.30;99.90
7564;DHT22;3823;53.586;10.040;2022-12-07T09:32:56;4.30;99.90
7564;DHT22;3823;53.586;10.040;2022-12-07T09:35:23;4.30;99.90
7564;DHT22;3823;53.586;10.040;2022-12-07T09:37:49;4.30;99.90
7564;DHT22;3823;53.586;10.040;2022-12-07T09:40:16;4.20;99.90
7564;DHT22;3823;53.586;10.040;2022-12-07T09:42:46;4.30;99.90
7564;DHT22;3823;53.586;10.040;2022-12-07T09:45:20;4.30;99.90
7564;DHT22;3823;53.586;10.040;2022-12-07T09:47:46;4.40;99.90
7564;DHT22;3823;53.586;10.040;2022-12-07T09:50:19;4.40;99.90
7564;DHT22;3823;53.586;10.040;2022-12-07T09:52:47;4.50;99.90
7564;DHT22;3823;53.586;10.040;2022-12-07T09:55:16;4.50;99.90
7564;DHT22;3823;53.586;10.040;2022-12-07T09:57:44;4.60;99.90
7564;DHT22;3823;53.586;10.040;2022-12-07T10:00:14;4.60;99.90
7564;DHT22;3823;53.586;10.040;2022-12-07T10:02:46;4.70;99.90
7564;DHT22;3823;53.586;10.040;2022-12-07T10:05:16;4.70;99.90
7564;DHT22;3823;53.586;10.040;2022-12-07T10:07:42;4.80;99.90
7564;DHT22;3823;53.586;10.040;2022-12-07T10:10:28;4.70;99.90
7564;DHT22;3823;53.586;10.040;2022-12-07T10:12:59;4.70;99.90
7564;DHT22;3823;53.586;10.040;2022-12-07T10:18:27;4.70;99.90
7564;DHT22;3823;53.586;10.040;2022-12-07T10:23:27;4.60;99.90
7564;DHT22;3823;53.586;10.040;2022-12-07T10:25:53;4.60;99.90
7564;DHT22;3823;53.586;10.040;2022-12-07T10:28:20;4.70;99.90
7564;DHT22;3823;53.586;10.040;2022-12-07T10:31:14;4.70;99.90
7564;DHT22;3823;53.586;10.040;2022-12-07T10:36:29;4.80;99.90
7564;DHT22;3823;53.586;10.040;2022-12-07T10:41:35;4.80;99.90
7564;DHT22;3823;53.586;10.040;2022-12-07T10:44:22;4.80;99.90
7564;DHT22;3823;53.586;10.040;2022-12-07T10:47:01;4.80;99.90
7564;DHT22;3823;53.586;10.040;2022-12-07T11:00:25;4.90;99.90
7564;DHT22;3823;53.586;10.040;2022-12-07T11:03:22;4.90;99.90
7564;DHT22;3823;53.586;10.040;2022-12-07T11:05:56;5.00;99.90
7564;DHT22;3823;53.586;10.040;2022-12-07T11:08:31;5.10;99.90
7564;DHT22;3823;53.586;10.040;2022-12-07T11:11:14;5.30;99.90
7564;DHT22;3823;53.586;10.040;2022-12-07T11:16:32;5.30;99.90
7564;DHT22;3823;53.586;10.040;2022-12-07T11:19:12;5.30;99.90
7564;DHT22;3823;53.586;10.040;2022-12-07T11:21:48;5.20;99.90
7564;DHT22;3823;53.586;10.040;2022-12-07T11:24:19;5.20;99.90
7564;DHT22;3823;53.586;10.040;2022-12-07T11:38:09;5.20;99.90
7564;DHT22;3823;53.586;10.040;2022-12-07T11:40:37;5.10;96.90
7564;DHT22;3823;53.586;10.040;2022-12-07T11:43:31;5.10;96.40
7564;DHT22;3823;53.586;10.040;2022-12-07T11:46:04;5.10;99.90
7564;DHT22;3823;53.586;10.040;2022-12-07T11:48:41;5.20;94.50
7564;DHT22;3823;53.586;10.040;2022-12-07T11:51:12;5.10;83.60
7564;DHT22;3823;53.586;10.040;2022-12-07T11:53:46;5.20;82.30
7564;DHT22;3823;53.586;10.040;2022-12-07T11:56:20;5.30;61.70
7564;DHT22;3823;53.586;10.040;2022-12-07T11:58:57;5.30;27.70
7564;DHT22;3823;53.586;10.040;2022-12-07T12:06:39;5.20;25.80
7564;DHT22;3823;53.586;10.040;2022-12-07T12:09:12;5.20;17.70
7564;DHT22;3823;53.586;10.040;2022-12-07T12:22:38;5.60;1.00
7564;DHT22;3823;53.586;10.040;2022-12-07T12:25:07;5.60;1.00
7564;DHT22;3823;53.586;10.040;2022-12-07T12:27:45;5.60;1.00
7564;DHT22;3823;53.586;10.040;2022-12-07T12:33:22;5.60;1.00
7564;DHT22;3823;53.586;10.040;2022-12-07T12:51:52;5.90;1.00
7564;DHT22;3823;53.586;10.040;2022-12-07T12:59:31;6.00;1.00
7564;DHT22;3823;53.586;10.040;2022-12-07T13:02:22;6.00;1.00
7564;DHT22;3823;53.586;10.040;2022-12-07T13:10:43;5.90;1.00
7564;DHT22;3823;53.586;10.040;2022-12-07T13:20:59;5.90;1.00
7564;DHT22;3823;53.586;10.040;2022-12-07T13:26:16;5.70;1.00
7564;DHT22;3823;53.586;10.040;2022-12-07T13:28:45;5.60;1.00
7564;DHT22;3823;53.586;10.040;2022-12-07T13:33:46;5.60;1.00
7564;DHT22;3823;53.586;10.040;2022-12-07T13:38:53;5.60;1.00
7564;DHT22;3823;53.586;10.040;2022-12-07T13:41:21;5.50;1.00
7564;DHT22;3823;53.586;10.040;2022-12-07T13:46:24;5.50;1.00
7564;DHT22;3823;53.586;10.040;2022-12-07T13:48:51;5.50;1.00
7564;DHT22;3823;53.586;10.040;2022-12-07T13:53:49;5.50;1.00
7564;DHT22;3823;53.586;10.040;2022-12-07T13:56:15;5.60;1.00
7564;DHT22;3823;53.586;10.040;2022-12-07T13:58:41;5.50;1.00
7564;DHT22;3823;53.586;10.040;2022-12-07T14:01:07;5.50;1.00
7564;DHT22;3823;53.586;10.040;2022-12-07T14:03:35;5.50;1.00
7564;DHT22;3823;53.586;10.040;2022-12-07T14:06:27;5.60;1.00
7564;DHT22;3823;53.586;10.040;2022-12-07T14:09:19;5.50;1.00
7564;DHT22;3823;53.586;10.040;2022-12-07T14:11:47;5.50;1.00
7564;DHT22;3823;53.586;10.040;2022-12-07T14:14:33;5.40;1.00
7564;DHT22;3823;53.586;10.040;2022-12-07T14:17:08;5.40;1.00
7564;DHT22;3823;53.586;10.040;2022-12-07T14:22:20;5.30;1.00
7564;DHT22;3823;53.586;10.040;2022-12-07T14:24:47;5.30;1.00
7564;DHT22;3823;53.586;10.040;2022-12-07T14:27:21;5.30;1.00
7564;DHT22;3823;53.586;10.040;2022-12-07T14:29:47;5.30;1.00
7564;DHT22;3823;53.586;10.040;2022-12-07T14:32:25;5.30;1.00
7564;DHT22;3823;53.586;10.040;2022-12-07T14:34:59;5.20;1.00
7564;DHT22;3823;53.586;10.040;2022-12-07T14:37:26;5.20;1.00
7564;DHT22;3823;53.586;10.040;2022-12-07T14:39:53;5.20;1.00
7564;DHT22;3823;53.586;10.040;2022-12-07T14:42:19;5.10;1.00
7564;DHT22;3823;53.586;10.040;2022-12-07T14:44:45;5.00;1.00
7564;DHT22;3823;53.586;10.040;2022-12-07T14:47:11;5.00;1.00
7564;DHT22;3823;53.586;10.040;2022-12-07T14:49:36;5.00;1.00
7564;DHT22;3823;53.586;10.040;2022-12-07T14:52:02;4.90;1.00
7564;DHT22;3823;53.586;10.040;2022-12-07T14:54:31;4.90;1.00
7564;DHT22;3823;53.586;10.040;2022-12-07T14:56:57;4.80;1.00
7564;DHT22;3823;53.586;10.040;2022-12-07T14:59:23;4.80;1.00
7564;DHT22;3823;53.586;10.040;2022-12-07T15:01:49;4.70;1.00
7564;DHT22;3823;53.586;10.040;2022-12-07T15:04:15;4.70;1.00
7564;DHT22;3823;53.586;10.040;2022-12-07T15:06:40;4.70;1.00
7564;DHT22;3823;53.586;10.040;2022-12-07T15:09:10;4.60;1.00
7564;DHT22;3823;53.586;10.040;2022-12-07T15:11:36;4.60;1.00
7564;DHT22;3823;53.586;10.040;2022-12-07T15:14:02;4.60;1.00
7564;DHT22;3823;53.586;10.040;2022-12-07T15:16:33;4.60;1.00
7564;DHT22;3823;53.586;10.040;2022-12-07T15:18:59;4.50;1.00
7564;DHT22;3823;53.586;10.040;2022-12-07T15:21:25;4.50;1.00
7564;DHT22;3823;53.586;10.040;2022-12-07T15:23:50;4.50;1.00
7564;DHT22;3823;53.586;10.040;2022-12-07T15:26:16;4.50;1.00
7564;DHT22;3823;53.586;10.040;2022-12-07T15:28:42;4.50;1.00
7564;DHT22;3823;53.586;10.040;2022-12-07T15:31:12;4.50;1.00
7564;DHT22;3823;53.586;10.040;2022-12-07T15:33:38;4.40;1.00
7564;DHT22;3823;53.586;10.040;2022-12-07T15:36:04;4.40;1.00
7564;DHT22;3823;53.586;10.040;2022-12-07T15:38:31;4.40;1.00
7564;DHT22;3823;53.586;10.040;2022-12-07T15:40:57;4.40;1.00
7564;DHT22;3823;53.586;10.040;2022-12-07T15:43:22;4.40;1.00
7564;DHT22;3823;53.586;10.040;2022-12-07T15:46:07;4.40;1.00
7564;DHT22;3823;53.586;10.040;2022-12-07T15:48:32;4.30;1.00
7564;DHT22;3823;53.586;10.040;2022-12-07T15:51:06;4.30;1.00
7564;DHT22;3823;53.586;10.040;2022-12-07T15:53:33;4.20;1.00
7564;DHT22;3823;53.586;10.040;2022-12-07T15:56:00;4.20;1.00
7564;DHT22;3823;53.586;10.040;2022-12-07T15:58:26;4.20;1.00
7564;DHT22;3823;53.586;10.040;2022-12-07T16:00:51;4.10;1.00
7564;DHT22;3823;53.586;10.040;2022-12-07T16:03:17;4.00;1.00
7564;DHT22;3823;53.586;10.040;2022-12-07T16:05:49;4.00;1.00
7564;DHT22;3823;53.586;10.040;2022-12-07T16:08:14;4.00;1.00
7564;DHT22;3823;53.586;10.040;2022-12-07T16:10:40;4.00;1.00
7564;DHT22;3823;53.586;10.040;2022-12-07T16:13:09;3.90;1.00
7564;DHT22;3823;53.586;10.040;2022-12-07T16:15:38;3.90;1.00
7564;DHT22;3823;53.586;10.040;2022-12-07T16:18:04;3.90;1.00
7564;DHT22;3823;53.586;10.040;2022-12-07T16:20:30;3.90;1.00
7564;DHT22;3823;53.586;10.040;2022-12-07T16:22:55;3.80;1.00
7564;DHT22;3823;53.586;10.040;2022-12-07T16:25:21;3.80;1.00
7564;DHT22;3823;53.586;10.040;2022-12-07T16:27:46;3.80;1.00
7564;DHT22;3823;53.586;10.040;2022-12-07T16:30:14;3.80;1.00
7564;DHT22;3823;53.586;10.040;2022-12-07T16:32:40;3.80;1.00
7564;DHT22;3823;53.586;10.040;2022-12-07T16:35:06;3.80;1.00
7564;DHT22;3823;53.586;10.040;2022-12-07T16:37:31;3.80;1.00
7564;DHT22;3823;53.586;10.040;2022-12-07T16:39:57;3.80;1.00
7564;DHT22;3823;53.586;10.040;2022-12-07T16:42:22;3.80;1.00
7564;DHT22;3823;53.586;10.040;2022-12-07T16:44:48;3.80;1.00
7564;DHT22;3823;53.586;10.040;2022-12-07T16:47:13;3.80;1.00
7564;DHT22;3823;53.586;10.040;2022-12-07T16:49:39;3.80;1.00
7564;DHT22;3823;53.586;10.040;2022-12-07T16:52:05;3.70;1.00
7564;DHT22;3823;53.586;10.040;2022-12-07T16:54:30;3.70;1.00
7564;DHT22;3823;53.586;10.040;2022-12-07T16:56:58;3.80;1.00
7564;DHT22;3823;53.586;10.040;2022-12-07T16:59:24;3.80;1.00
7564;DHT22;3823;53.586;10.040;2022-12-07T17:01:49;3.80;1.00
7564;DHT22;3823;53.586;10.040;2022-12-07T17:04:15;3.70;1.00
7564;DHT22;3823;53.586;10.040;2022-12-07T17:06:40;3.70;1.00
7564;DHT22;3823;53.586;10.040;2022-12-07T17:09:06;3.70;1.00
7564;DHT22;3823;53.586;10.040;2022-12-07T17:11:35;3.80;1.00
7564;DHT22;3823;53.586;10.040;2022-12-07T17:14:01;3.80;1.00
7564;DHT22;3823;53.586;10.040;2022-12-07T17:16:45;3.80;1.00
7564;DHT22;3823;53.586;10.040;2022-12-07T17:19:13;3.80;1.00
7564;DHT22;3823;53.586;10.040;2022-12-07T17:21:39;3.80;1.00
7564;DHT22;3823;53.586;10.040;2022-12-07T17:24:07;3.80;1.00
7564;DHT22;3823;53.586;10.040;2022-12-07T17:26:33;3.80;1.00
7564;DHT22;3823;53.586;10.040;2022-12-07T17:28:59;3.80;1.00
7564;DHT22;3823;53.586;10.040;2022-12-07T17:31:25;3.80;1.00
7564;DHT22;3823;53.586;10.040;2022-12-07T17:33:51;3.80;1.00
7564;DHT22;3823;53.586;10.040;2022-12-07T17:36:23;3.80;1.00
7564;DHT22;3823;53.586;10.040;2022-12-07T17:38:50;3.80;1.00
7564;DHT22;3823;53.586;10.040;2022-12-07T17:41:42;3.80;1.00
7564;DHT22;3823;53.586;10.040;2022-12-07T17:44:27;3.70;1.00
7564;DHT22;3823;53.586;10.040;2022-12-07T17:46:53;3.70;1.00
7564;DHT22;3823;53.586;10.040;2022-12-07T17:49:27;3.70;1.00
7564;DHT22;3823;53.586;10.040;2022-12-07T17:51:53;3.70;1.00
7564;DHT22;3823;53.586;10.040;2022-12-07T17:54:37;3.70;1.00
7564;DHT22;3823;53.586;10.040;2022-12-07T17:57:03;3.70;1.00
7564;DHT22;3823;53.586;10.040;2022-12-07T17:59:28;3.70;1.00
7564;DHT22;3823;53.586;10.040;2022-12-07T18:01:54;3.70;1.00
7564;DHT22;3823;53.586;10.040;2022-12-07T18:04:20;3.60;1.00
7564;DHT22;3823;53.586;10.040;2022-12-07T18:06:45;3.60;1.00
7564;DHT22;3823;53.586;10.040;2022-12-07T18:09:11;3.50;1.00
7564;DHT22;3823;53.586;10.040;2022-12-07T18:11:37;3.50;1.00
7564;DHT22;3823;53.586;10.040;2022-12-07T18:14:03;3.50;1.00
7564;DHT22;3823;53.586;10.040;2022-12-07T18:16:30;3.60;1.00
7564;DHT22;3823;53.586;10.040;2022-12-07T18:19:05;3.60;1.00
7564;DHT22;3823;53.586;10.040;2022-12-07T18:21:31;3.60;1.00
7564;DHT22;3823;53.586;10.040;2022-12-07T18:23:59;3.60;1.00
7564;DHT22;3823;53.586;10.040;2022-12-07T18:26:30;3.60;1.00
7564;DHT22;3823;53.586;10.040;2022-12-07T18:28:58;3.60;1.00
7564;DHT22;3823;53.586;10.040;2022-12-07T18:31:24;3.60;1.00
7564;DHT22;3823;53.586;10.040;2022-12-07T18:33:50;3.50;1.00
7564;DHT22;3823;53.586;10.040;2022-12-07T18:36:16;3.60;1.00